createdAt,value
2018-07-06T00:00:18.253Z,947.59
2018-07-06T00:01:18.249Z,947.60
2018-07-06T00:02:18.246Z,947.60
2018-07-06T00:03:18.245Z,947.56
2018-07-06T00:04:18.259Z,947.53
2018-07-06T00:05:18.241Z,947.51
2018-07-06T00:06:18.233Z,947.56
2018-07-06T00:07:18.227Z,947.55
2018-07-06T00:08:18.228Z,947.50
2018-07-06T00:09:18.224Z,947.53
2018-07-06T00:10:18.237Z,947.54
2018-07-06T00:11:18.215Z,947.50
2018-07-06T00:12:18.224Z,947.51
2018-07-06T00:13:18.219Z,947.51
2018-07-06T00:14:18.210Z,947.52
2018-07-06T00:15:18.206Z,947.54
2018-07-06T00:16:18.224Z,947.54
2018-07-06T00:17:18.197Z,947.51
2018-07-06T00:18:18.205Z,947.50
2018-07-06T00:19:18.192Z,947.51
2018-07-06T00:20:18.194Z,947.48
2018-07-06T00:21:18.201Z,947.48
2018-07-06T00:22:18.185Z,947.51
2018-07-06T00:23:18.182Z,947.49
2018-07-06T00:24:18.178Z,947.50
2018-07-06T00:25:18.178Z,947.44
2018-07-06T00:26:18.173Z,947.48
2018-07-06T00:27:18.168Z,947.42
2018-07-06T00:28:18.161Z,947.44
2018-07-06T00:29:18.163Z,947.40
2018-07-06T00:30:18.159Z,947.38
2018-07-06T00:31:18.169Z,947.37
2018-07-06T00:32:18.158Z,947.33
2018-07-06T00:33:18.151Z,947.34
2018-07-06T00:34:18.150Z,947.33
2018-07-06T00:35:18.145Z,947.29
2018-07-06T00:36:18.144Z,947.30
2018-07-06T00:37:18.139Z,947.29
2018-07-06T00:38:18.132Z,947.26
2018-07-06T00:39:18.140Z,947.26
2018-07-06T00:40:18.148Z,947.29
2018-07-06T00:41:18.126Z,947.30
2018-07-06T00:42:18.129Z,947.30
2018-07-06T00:43:18.139Z,947.35
2018-07-06T00:44:18.120Z,947.31
2018-07-06T00:45:18.116Z,947.36
2018-07-06T00:46:18.113Z,947.38
2018-07-06T00:47:18.112Z,947.37
2018-07-06T00:48:18.112Z,947.39
2018-07-06T00:49:18.096Z,947.41
2018-07-06T00:50:18.099Z,947.42
2018-07-06T00:51:18.093Z,947.39
2018-07-06T00:52:18.096Z,947.42
2018-07-06T00:53:18.095Z,947.43
2018-07-06T00:54:18.084Z,947.40
2018-07-06T00:55:18.090Z,947.41
2018-07-06T00:56:18.083Z,947.40
2018-07-06T00:57:18.079Z,947.42
2018-07-06T00:58:18.078Z,947.39
2018-07-06T00:59:18.077Z,947.46
2018-07-06T01:00:18.071Z,947.41
2018-07-06T01:01:18.068Z,947.43
2018-07-06T01:02:18.071Z,947.43
2018-07-06T01:03:18.064Z,947.43
2018-07-06T01:04:18.052Z,947.42
2018-07-06T01:05:18.089Z,947.44
2018-07-06T01:06:18.056Z,947.41
2018-07-06T01:07:18.052Z,947.44
2018-07-06T01:08:18.054Z,947.43
2018-07-06T01:09:18.044Z,947.44
2018-07-06T01:10:18.042Z,947.47
2018-07-06T01:11:18.042Z,947.46
2018-07-06T01:12:18.028Z,947.49
2018-07-06T01:13:18.030Z,947.48
2018-07-06T01:14:18.020Z,947.48
2018-07-06T01:15:18.025Z,947.48
2018-07-06T01:16:18.025Z,947.49
2018-07-06T01:17:18.022Z,947.51
2018-07-06T01:18:18.019Z,947.53
2018-07-06T01:19:18.016Z,947.53
2018-07-06T01:20:18.015Z,947.47
2018-07-06T01:21:18.009Z,947.50
2018-07-06T01:22:18.018Z,947.52
2018-07-06T01:23:18.006Z,947.47
2018-07-06T01:24:17.999Z,947.51
2018-07-06T01:25:18.010Z,947.50
2018-07-06T01:26:18.041Z,947.50
2018-07-06T01:27:17.990Z,947.50
2018-07-06T01:28:17.996Z,947.46
2018-07-06T01:29:17.985Z,947.48
2018-07-06T01:30:17.984Z,947.49
2018-07-06T01:31:18.001Z,947.46
2018-07-06T02:05:10.261Z,947.40
2018-07-06T02:06:10.223Z,947.46
2018-07-06T02:08:03.152Z,947.49
2018-07-06T02:09:03.128Z,947.47
2018-07-06T02:10:56.227Z,947.46
2018-07-06T02:11:56.258Z,947.46
2018-07-06T02:13:49.158Z,947.50
2018-07-06T02:14:49.137Z,947.49
2018-07-06T02:16:42.044Z,947.45
2018-07-06T02:17:42.030Z,947.48
2018-07-06T02:19:34.969Z,947.46
2018-07-06T02:20:34.950Z,947.43
2018-07-06T02:22:27.909Z,947.46
2018-07-06T02:23:27.885Z,947.42
2018-07-06T02:25:20.843Z,947.40
2018-07-06T02:26:20.831Z,947.43
2018-07-06T02:28:13.857Z,947.39
2018-07-06T02:29:13.836Z,947.39
2018-07-06T02:31:06.815Z,947.37
2018-07-06T02:32:06.800Z,947.37
2018-07-06T02:33:59.741Z,947.37
2018-07-06T02:34:59.709Z,947.37
2018-07-06T02:36:52.618Z,947.33
2018-07-06T02:37:52.589Z,947.36
2018-07-06T02:39:45.504Z,947.33
2018-07-06T02:40:45.479Z,947.39
2018-07-06T02:42:38.446Z,947.33
2018-07-06T02:43:38.412Z,947.32
2018-07-06T02:45:31.317Z,947.32
2018-07-06T02:46:31.309Z,947.35
2018-07-06T02:48:24.285Z,947.36
2018-07-06T02:49:24.260Z,947.34
2018-07-06T02:50:24.261Z,947.38
2018-07-06T02:51:24.254Z,947.38
2018-07-06T02:52:24.252Z,947.43
2018-07-06T02:53:24.249Z,947.44
2018-07-06T02:54:24.247Z,947.39
2018-07-06T02:55:24.244Z,947.43
2018-07-06T02:56:24.241Z,947.45
2018-07-06T02:57:24.242Z,947.41
2018-07-06T02:58:24.234Z,947.42
2018-07-06T02:59:24.236Z,947.43
2018-07-06T03:00:24.229Z,947.44
2018-07-06T03:01:24.227Z,947.41
2018-07-06T03:02:24.224Z,947.41
2018-07-06T03:03:24.223Z,947.45
2018-07-06T03:04:24.219Z,947.44
2018-07-06T03:05:24.216Z,947.41
2018-07-06T03:06:24.212Z,947.50
2018-07-06T03:07:24.210Z,947.45
2018-07-06T03:08:24.201Z,947.52
2018-07-06T03:09:24.208Z,947.52
2018-07-06T03:10:24.206Z,947.52
2018-07-06T03:11:24.201Z,947.54
2018-07-06T03:12:24.198Z,947.54
2018-07-06T03:13:24.193Z,947.55
2018-07-06T03:14:24.202Z,947.57
2018-07-06T03:15:24.188Z,947.60
2018-07-06T03:16:24.186Z,947.60
2018-07-06T03:17:24.187Z,947.60
2018-07-06T03:18:24.181Z,947.65
2018-07-06T03:19:24.179Z,947.66
2018-07-06T03:20:24.176Z,947.63
2018-07-06T03:21:24.182Z,947.64
2018-07-06T03:22:24.166Z,947.64
2018-07-06T03:23:24.165Z,947.66
2018-07-06T03:24:24.161Z,947.67
2018-07-06T03:25:24.158Z,947.68
2018-07-06T03:26:24.157Z,947.65
2018-07-06T03:27:24.155Z,947.68
2018-07-06T03:28:24.319Z,947.70
2018-07-06T03:29:24.149Z,947.69
2018-07-06T03:30:24.148Z,947.71
2018-07-06T03:31:24.145Z,947.72
2018-07-06T03:32:24.147Z,947.67
2018-07-06T03:33:24.140Z,947.70
2018-07-06T03:34:24.137Z,947.67
2018-07-06T03:35:24.132Z,947.68
2018-07-06T03:36:24.133Z,947.68
2018-07-06T03:37:24.124Z,947.67
2018-07-06T03:38:24.125Z,947.69
2018-07-06T03:39:24.119Z,947.67
2018-07-06T03:40:24.117Z,947.66
2018-07-06T03:41:24.117Z,947.72
2018-07-06T03:42:24.117Z,947.66
2018-07-06T03:43:24.112Z,947.75
2018-07-06T03:44:24.111Z,947.73
2018-07-06T03:45:24.105Z,947.73
2018-07-06T03:46:24.099Z,947.70
2018-07-06T03:47:24.103Z,947.69
2018-07-06T03:48:24.085Z,947.74
2018-07-06T03:49:24.101Z,947.69
2018-07-06T03:50:24.093Z,947.72
2018-07-06T03:51:24.092Z,947.71
2018-07-06T03:52:24.086Z,947.74
2018-07-06T03:53:24.089Z,947.74
2018-07-06T03:54:24.081Z,947.70
2018-07-06T03:55:24.089Z,947.74
2018-07-06T03:56:24.076Z,947.74
2018-07-06T03:57:24.073Z,947.68
2018-07-06T03:58:24.082Z,947.72
2018-07-06T03:59:24.068Z,947.69
2018-07-06T04:00:24.065Z,947.69
2018-07-06T04:01:24.063Z,947.71
2018-07-06T04:02:24.063Z,947.67
2018-07-06T04:03:24.061Z,947.65
2018-07-06T04:04:24.055Z,947.67
2018-07-06T04:05:24.046Z,947.68
2018-07-06T04:06:24.050Z,947.62
2018-07-06T04:07:24.044Z,947.64
2018-07-06T04:08:24.043Z,947.64
2018-07-06T04:09:24.085Z,947.65
2018-07-06T04:10:24.088Z,947.63
2018-07-06T04:11:24.087Z,947.66
2018-07-06T04:12:24.092Z,947.68
2018-07-06T04:13:24.090Z,947.69
2018-07-06T04:14:24.088Z,947.69
2018-07-06T04:15:24.088Z,947.72
2018-07-06T04:16:24.089Z,947.71
2018-07-06T04:17:24.032Z,947.72
2018-07-06T04:18:24.042Z,947.76
2018-07-06T04:19:24.040Z,947.72
2018-07-06T04:20:24.056Z,947.74
2018-07-06T04:21:24.054Z,947.76
2018-07-06T04:22:24.068Z,947.72
2018-07-06T04:23:24.075Z,947.75
2018-07-06T04:24:24.008Z,947.74
2018-07-06T04:25:24.009Z,947.77
2018-07-06T04:26:24.046Z,947.75
2018-07-06T04:27:24.010Z,947.80
2018-07-06T04:28:24.008Z,947.78
2018-07-06T04:29:24.007Z,947.77
2018-07-06T04:30:24.012Z,947.79
2018-07-06T04:31:24.012Z,947.81
2018-07-06T04:32:24.104Z,947.79
2018-07-06T04:33:23.986Z,947.80
2018-07-06T04:34:23.979Z,947.78
2018-07-06T04:35:23.989Z,947.77
2018-07-06T04:36:23.994Z,947.79
2018-07-06T04:37:23.991Z,947.81
2018-07-06T04:38:23.990Z,947.81
2018-07-06T04:39:23.990Z,947.84
2018-07-06T04:40:23.975Z,947.86
2018-07-06T04:41:23.981Z,947.87
2018-07-06T04:42:23.991Z,947.83
2018-07-06T04:43:23.994Z,947.85
2018-07-06T04:44:23.996Z,947.84
2018-07-06T04:45:23.995Z,947.88
2018-07-06T04:46:23.998Z,947.89
2018-07-06T04:47:24.004Z,947.92
2018-07-06T04:48:23.945Z,947.90
2018-07-06T04:49:23.946Z,947.88
2018-07-06T04:50:23.941Z,947.88
2018-07-06T04:51:23.933Z,947.89
2018-07-06T04:52:23.951Z,947.94
2018-07-06T04:53:23.998Z,947.95
2018-07-06T04:54:23.922Z,947.96
2018-07-06T04:55:23.927Z,947.93
2018-07-06T04:56:23.923Z,947.98
2018-07-06T04:57:23.926Z,947.97
2018-07-06T04:58:23.920Z,947.95
2018-07-06T04:59:23.918Z,948.00
2018-07-06T05:00:23.916Z,947.98
2018-07-06T05:01:23.915Z,947.98
2018-07-06T05:02:23.903Z,948.03
2018-07-06T05:03:23.908Z,948.02
2018-07-06T05:04:23.910Z,948.03
2018-07-06T05:05:23.907Z,948.04
2018-07-06T05:06:23.904Z,948.04
2018-07-06T05:07:23.902Z,948.03
2018-07-06T05:08:23.902Z,948.05
2018-07-06T05:09:23.917Z,948.10
2018-07-06T05:10:23.901Z,948.04
2018-07-06T05:11:23.892Z,948.07
2018-07-06T05:12:23.892Z,948.05
2018-07-06T05:13:23.891Z,948.08
2018-07-06T05:14:23.886Z,948.04
2018-07-06T05:15:23.883Z,948.05
2018-07-06T05:16:23.882Z,948.09
2018-07-06T05:17:23.881Z,948.09
2018-07-06T05:18:23.875Z,948.07
2018-07-06T05:19:23.876Z,948.08
2018-07-06T05:20:23.877Z,948.05
2018-07-06T05:21:23.941Z,948.12
2018-07-06T05:22:23.872Z,948.13
2018-07-06T05:23:23.867Z,948.10
2018-07-06T05:24:23.867Z,948.10
2018-07-06T05:25:23.863Z,948.08
2018-07-06T05:26:23.864Z,948.10
2018-07-06T05:27:23.859Z,948.08
2018-07-06T05:28:23.848Z,948.10
2018-07-06T05:29:23.860Z,948.10
2018-07-06T05:30:23.874Z,948.13
2018-07-06T05:31:23.850Z,948.12
2018-07-06T05:32:23.857Z,948.15
2018-07-06T05:33:23.845Z,948.14
2018-07-06T05:34:23.840Z,948.15
2018-07-06T05:35:23.840Z,948.14
2018-07-06T05:36:23.851Z,948.11
2018-07-06T05:37:23.835Z,948.14
2018-07-06T05:38:23.875Z,948.13
2018-07-06T05:39:23.880Z,948.14
2018-07-06T05:40:23.879Z,948.17
2018-07-06T05:41:23.879Z,948.11
2018-07-06T05:42:23.870Z,948.16
2018-07-06T05:43:23.880Z,948.21
2018-07-06T05:44:23.891Z,948.18
2018-07-06T05:45:23.821Z,948.18
2018-07-06T05:46:23.890Z,948.18
2018-07-06T05:47:23.818Z,948.19
2018-07-06T05:48:23.807Z,948.21
2018-07-06T05:49:23.816Z,948.22
2018-07-06T05:50:23.811Z,948.22
2018-07-06T05:51:23.812Z,948.25
2018-07-06T05:52:23.808Z,948.25
2018-07-06T05:53:23.799Z,948.30
2018-07-06T05:54:23.801Z,948.27
2018-07-06T05:55:23.798Z,948.25
2018-07-06T05:56:23.819Z,948.31
2018-07-06T05:57:23.796Z,948.30
2018-07-06T05:58:23.794Z,948.33
2018-07-06T05:59:23.789Z,948.35
2018-07-06T06:00:23.789Z,948.36
2018-07-06T06:01:23.787Z,948.31
2018-07-06T06:02:23.786Z,948.36
2018-07-06T06:03:23.781Z,948.34
2018-07-06T06:04:23.780Z,948.39
2018-07-06T06:05:23.781Z,948.36
2018-07-06T06:06:23.779Z,948.38
2018-07-06T06:07:23.776Z,948.37
2018-07-06T06:08:23.774Z,948.36
2018-07-06T06:09:23.772Z,948.40
2018-07-06T06:10:23.772Z,948.41
2018-07-06T06:11:23.767Z,948.44
2018-07-06T06:12:23.769Z,948.44
2018-07-06T06:13:23.765Z,948.43
2018-07-06T06:14:23.766Z,948.38
2018-07-06T06:15:23.762Z,948.40
2018-07-06T06:16:23.758Z,948.46
2018-07-06T06:17:23.757Z,948.43
2018-07-06T06:18:23.764Z,948.44
2018-07-06T06:19:23.768Z,948.45
2018-07-06T06:20:23.752Z,948.46
2018-07-06T06:21:23.751Z,948.45
2018-07-06T06:22:23.813Z,948.46
2018-07-06T06:23:23.753Z,948.48
2018-07-06T06:24:23.746Z,948.49
2018-07-06T06:25:23.745Z,948.47
2018-07-06T06:26:23.741Z,948.48
2018-07-06T06:27:23.735Z,948.50
2018-07-06T06:28:23.739Z,948.50
2018-07-06T06:29:23.735Z,948.53
2018-07-06T06:30:23.732Z,948.54
2018-07-06T06:31:23.724Z,948.56
2018-07-06T06:32:23.729Z,948.54
2018-07-06T06:33:23.831Z,948.53
2018-07-06T06:34:23.726Z,948.53
2018-07-06T06:35:23.720Z,948.53
2018-07-06T06:36:23.721Z,948.55
2018-07-06T06:37:23.721Z,948.58
2018-07-06T06:38:23.720Z,948.56
2018-07-06T06:39:23.722Z,948.58
2018-07-06T06:40:23.715Z,948.58
2018-07-06T06:41:23.713Z,948.61
2018-07-06T06:42:23.713Z,948.60
2018-07-06T06:43:23.710Z,948.63
2018-07-06T06:44:23.716Z,948.64
2018-07-06T06:45:23.707Z,948.64
2018-07-06T06:46:23.705Z,948.67
2018-07-06T06:47:23.708Z,948.65
2018-07-06T06:48:23.703Z,948.66
2018-07-06T06:49:23.702Z,948.69
2018-07-06T06:50:23.696Z,948.68
2018-07-06T06:51:23.694Z,948.71
2018-07-06T06:52:23.697Z,948.72
2018-07-06T06:53:23.697Z,948.73
2018-07-06T06:54:23.689Z,948.72
2018-07-06T06:55:23.688Z,948.73
2018-07-06T06:56:23.686Z,948.73
2018-07-06T06:57:23.684Z,948.73
2018-07-06T06:58:23.699Z,948.75
2018-07-06T06:59:23.686Z,948.77
2018-07-06T07:00:27.533Z,948.76
2018-07-06T07:01:23.678Z,948.77
2018-07-06T07:02:23.678Z,948.78
2018-07-06T07:03:23.675Z,948.76
2018-07-06T07:04:23.677Z,948.75
2018-07-06T07:05:23.672Z,948.75
2018-07-06T07:06:23.671Z,948.73
2018-07-06T07:07:23.707Z,948.74
2018-07-06T07:08:23.667Z,948.76
2018-07-06T07:09:23.670Z,948.78
2018-07-06T07:10:23.663Z,948.76
2018-07-06T07:11:23.667Z,948.74
2018-07-06T07:12:23.655Z,948.79
2018-07-06T07:13:23.659Z,948.78
2018-07-06T07:14:23.670Z,948.84
2018-07-06T07:15:23.653Z,948.81
2018-07-06T07:16:23.646Z,948.83
2018-07-06T07:17:23.652Z,948.81
2018-07-06T07:18:23.647Z,948.84
2018-07-06T07:19:23.644Z,948.83
2018-07-06T07:20:23.645Z,948.82
2018-07-06T07:21:23.642Z,948.87
2018-07-06T07:22:23.640Z,948.84
2018-07-06T07:23:23.643Z,948.86
2018-07-06T07:24:23.642Z,948.85
2018-07-06T07:25:23.636Z,948.88
2018-07-06T07:26:23.645Z,948.85
2018-07-06T07:27:23.633Z,948.90
2018-07-06T07:28:23.634Z,948.88
2018-07-06T07:29:23.629Z,948.86
2018-07-06T07:30:23.631Z,948.89
2018-07-06T07:31:23.626Z,948.93
2018-07-06T07:32:23.622Z,948.93
2018-07-06T07:33:23.622Z,948.92
2018-07-06T07:34:23.615Z,948.91
2018-07-06T07:35:23.617Z,948.95
2018-07-06T07:36:23.618Z,948.93
2018-07-06T07:37:23.613Z,948.88
2018-07-06T07:38:23.617Z,948.92
2018-07-06T07:39:23.614Z,948.89
2018-07-06T07:40:23.610Z,948.92
2018-07-06T07:41:23.608Z,948.97
2018-07-06T07:42:23.601Z,948.91
2018-07-06T07:43:23.606Z,948.91
2018-07-06T07:44:23.614Z,948.94
2018-07-06T07:45:23.611Z,948.93
2018-07-06T07:46:23.644Z,948.89
2018-07-06T07:47:23.599Z,948.90
2018-07-06T07:48:23.598Z,948.90
2018-07-06T07:49:23.597Z,948.92
2018-07-06T07:50:23.599Z,948.91
2018-07-06T07:51:23.596Z,948.94
2018-07-06T07:52:23.605Z,948.96
2018-07-06T07:53:23.591Z,948.92
2018-07-06T07:54:23.620Z,948.98
2018-07-06T07:55:23.590Z,948.95
2018-07-06T07:56:23.590Z,948.96
2018-07-06T07:57:23.588Z,948.98
2018-07-06T07:58:23.600Z,948.98
2018-07-06T07:59:23.583Z,948.97
2018-07-06T08:00:23.639Z,949.00
2018-07-06T08:01:23.699Z,948.99
2018-07-06T08:02:23.583Z,949.01
2018-07-06T08:03:23.580Z,949.03
2018-07-06T08:04:23.579Z,949.02
2018-07-06T08:05:23.579Z,949.03
2018-07-06T08:06:23.577Z,949.00
2018-07-06T08:07:23.577Z,949.05
2018-07-06T08:08:23.574Z,949.03
2018-07-06T08:09:23.575Z,949.04
2018-07-06T08:10:23.575Z,949.03
2018-07-06T08:11:23.571Z,949.09
2018-07-06T08:12:23.571Z,949.08
2018-07-06T08:13:23.572Z,949.06
2018-07-06T08:14:23.608Z,949.07
2018-07-06T08:15:23.567Z,949.10
2018-07-06T08:16:23.568Z,949.10
2018-07-06T08:17:23.571Z,949.13
2018-07-06T08:18:23.615Z,949.15
2018-07-06T08:19:23.577Z,949.12
2018-07-06T08:20:23.561Z,949.14
2018-07-06T08:21:23.601Z,949.13
2018-07-06T08:22:23.562Z,949.16
2018-07-06T08:23:23.563Z,949.20
2018-07-06T08:24:23.559Z,949.18
2018-07-06T08:25:23.561Z,949.20
2018-07-06T08:26:23.559Z,949.17
2018-07-06T08:27:23.558Z,949.18
2018-07-06T08:28:23.557Z,949.18
2018-07-06T08:29:23.560Z,949.14
2018-07-06T08:30:23.587Z,949.17
2018-07-06T08:31:23.554Z,949.14
2018-07-06T08:32:23.555Z,949.17
2018-07-06T08:33:23.555Z,949.13
2018-07-06T08:34:23.557Z,949.13
2018-07-06T08:35:23.551Z,949.17
2018-07-06T08:36:23.561Z,949.16
2018-07-06T08:37:23.550Z,949.20
2018-07-06T08:38:23.548Z,949.21
2018-07-06T08:39:23.550Z,949.20
2018-07-06T08:40:23.548Z,949.17
2018-07-06T08:41:23.549Z,949.23
2018-07-06T08:42:23.550Z,949.19
2018-07-06T08:43:23.549Z,949.16
2018-07-06T08:44:23.548Z,949.20
2018-07-06T08:45:23.545Z,949.22
2018-07-06T08:46:23.547Z,949.22
2018-07-06T08:47:23.545Z,949.24
2018-07-06T08:48:23.546Z,949.25
2018-07-06T08:49:23.546Z,949.25
2018-07-06T08:50:23.571Z,949.27
2018-07-06T08:51:23.544Z,949.26
2018-07-06T08:52:23.544Z,949.31
2018-07-06T08:53:23.544Z,949.31
2018-07-06T08:54:23.546Z,949.30
2018-07-06T08:55:23.546Z,949.30
2018-07-06T08:56:23.544Z,949.28
2018-07-06T08:57:23.543Z,949.35
2018-07-06T08:58:23.639Z,949.35
2018-07-06T08:59:23.543Z,949.36
2018-07-06T09:00:23.541Z,949.32
2018-07-06T09:01:23.541Z,949.36
2018-07-06T09:02:23.542Z,949.36
2018-07-06T09:03:23.544Z,949.39
2018-07-06T09:04:23.735Z,949.36
2018-07-06T09:05:23.551Z,949.38
2018-07-06T09:06:23.548Z,949.43
2018-07-06T09:07:23.548Z,949.41
2018-07-06T09:08:23.549Z,949.48
2018-07-06T09:09:23.612Z,949.48
2018-07-06T09:10:23.634Z,949.45
2018-07-06T09:11:23.675Z,949.45
2018-07-06T09:12:23.632Z,949.44
2018-07-06T09:13:23.579Z,949.48
2018-07-06T09:14:23.602Z,949.51
2018-07-06T09:15:23.561Z,949.45
2018-07-06T09:16:23.659Z,949.50
2018-07-06T09:17:23.747Z,949.49
2018-07-06T09:18:23.565Z,949.51
2018-07-06T09:19:23.805Z,949.55
2018-07-06T09:20:23.565Z,949.53
2018-07-06T09:21:23.563Z,949.56
2018-07-06T09:22:23.565Z,949.56
2018-07-06T09:23:23.568Z,949.61
2018-07-06T09:24:23.599Z,949.62
2018-07-06T09:25:23.650Z,949.61
2018-07-06T09:26:23.639Z,949.62
2018-07-06T09:27:23.573Z,949.58
2018-07-06T09:28:23.572Z,949.63
2018-07-06T09:29:23.575Z,949.64
2018-07-06T09:30:23.575Z,949.62
2018-07-06T09:31:23.581Z,949.62
2018-07-06T09:32:23.580Z,949.62
2018-07-06T09:33:23.588Z,949.67
2018-07-06T09:34:23.583Z,949.66
2018-07-06T09:35:23.583Z,949.62
2018-07-06T09:36:23.589Z,949.65
2018-07-06T09:37:23.592Z,949.66
2018-07-06T09:38:23.592Z,949.63
2018-07-06T09:39:23.592Z,949.66
2018-07-06T09:40:23.598Z,949.70
2018-07-06T09:41:23.601Z,949.67
2018-07-06T09:42:23.609Z,949.67
2018-07-06T09:43:23.669Z,949.66
2018-07-06T09:44:23.611Z,949.69
2018-07-06T09:45:23.614Z,949.68
2018-07-06T09:46:23.624Z,949.70
2018-07-06T09:47:23.620Z,949.69
2018-07-06T09:48:23.620Z,949.65
2018-07-06T09:49:23.622Z,949.71
2018-07-06T09:50:23.626Z,949.69
2018-07-06T09:51:23.628Z,949.72
2018-07-06T09:52:23.635Z,949.73
2018-07-06T09:53:23.639Z,949.78
2018-07-06T09:54:23.642Z,949.76
2018-07-06T09:55:23.643Z,949.74
2018-07-06T09:56:23.643Z,949.71
2018-07-06T09:57:23.655Z,949.75
2018-07-06T09:58:23.670Z,949.78
2018-07-06T09:59:23.652Z,949.79
2018-07-06T10:00:23.653Z,949.80
2018-07-06T10:01:23.659Z,949.81
2018-07-06T10:02:23.657Z,949.76
2018-07-06T10:03:23.681Z,949.78
2018-07-06T10:04:23.720Z,949.80
2018-07-06T10:05:23.667Z,949.78
2018-07-06T10:06:23.672Z,949.79
2018-07-06T10:07:23.673Z,949.81
2018-07-06T10:08:23.673Z,949.79
2018-07-06T10:09:23.675Z,949.80
2018-07-06T10:10:23.703Z,949.80
2018-07-06T10:11:23.683Z,949.76
2018-07-06T10:12:23.681Z,949.77
2018-07-06T10:13:23.691Z,949.74
2018-07-06T10:14:23.689Z,949.69
2018-07-06T10:15:23.689Z,949.69
2018-07-06T10:16:23.699Z,949.69
2018-07-06T10:17:23.697Z,949.70
2018-07-06T10:18:23.700Z,949.71
2018-07-06T10:19:23.708Z,949.78
2018-07-06T10:20:23.704Z,949.76
2018-07-06T10:21:23.706Z,949.76
2018-07-06T10:22:23.705Z,949.74
2018-07-06T10:23:23.715Z,949.74
2018-07-06T10:24:23.714Z,949.74
2018-07-06T10:25:23.717Z,949.74
2018-07-06T10:26:23.723Z,949.74
2018-07-06T10:27:23.789Z,949.73
2018-07-06T10:28:23.729Z,949.79
2018-07-06T10:29:23.729Z,949.75
2018-07-06T10:30:23.735Z,949.76
2018-07-06T10:31:23.734Z,949.75
2018-07-06T10:32:23.738Z,949.74
2018-07-06T10:33:23.762Z,949.74
2018-07-06T10:34:23.753Z,949.75
2018-07-06T10:35:23.751Z,949.71
2018-07-06T10:36:23.754Z,949.71
2018-07-06T10:37:23.757Z,949.71
2018-07-06T10:38:23.762Z,949.75
2018-07-06T10:39:23.771Z,949.77
2018-07-06T10:40:23.757Z,949.75
2018-07-06T10:41:23.773Z,949.75
2018-07-06T10:42:23.770Z,949.79
2018-07-06T10:43:23.773Z,949.78
2018-07-06T10:44:23.780Z,949.76
2018-07-06T10:45:23.781Z,949.80
2018-07-06T10:46:23.781Z,949.83
2018-07-06T10:47:23.787Z,949.82
2018-07-06T10:48:23.789Z,949.80
2018-07-06T10:49:23.794Z,949.81
2018-07-06T10:50:23.799Z,949.82
2018-07-06T10:51:23.800Z,949.83
2018-07-06T10:52:23.801Z,949.83
2018-07-06T10:53:23.806Z,949.83
2018-07-06T10:54:23.807Z,949.89
2018-07-06T10:55:23.811Z,949.91
2018-07-06T10:56:23.813Z,949.92
2018-07-06T10:57:23.819Z,949.98
2018-07-06T10:58:23.822Z,949.96
2018-07-06T10:59:23.842Z,949.95
2018-07-06T11:00:23.819Z,949.96
2018-07-06T11:01:23.836Z,950.01
2018-07-06T11:02:23.817Z,950.01
2018-07-06T11:03:23.823Z,949.99
2018-07-06T11:04:23.831Z,949.97
2018-07-06T11:05:23.835Z,950.03
2018-07-06T11:06:23.838Z,950.05
2018-07-06T11:07:23.845Z,950.06
2018-07-06T11:08:23.842Z,950.08
2018-07-06T11:09:23.842Z,950.06
2018-07-06T11:10:23.846Z,950.09
2018-07-06T11:11:23.846Z,950.09
2018-07-06T11:12:23.841Z,950.06
2018-07-06T11:13:23.884Z,950.07
2018-07-06T11:14:23.853Z,950.06
2018-07-06T11:15:23.852Z,950.06
2018-07-06T11:16:23.853Z,950.04
2018-07-06T11:17:23.855Z,950.08
2018-07-06T11:18:23.860Z,950.11
2018-07-06T11:19:23.875Z,950.09
2018-07-06T11:20:23.862Z,950.08
2018-07-06T11:21:23.860Z,950.09
2018-07-06T11:22:23.867Z,950.15
2018-07-06T11:23:23.868Z,950.15
2018-07-06T11:24:23.867Z,950.11
2018-07-06T11:25:23.955Z,950.11
2018-07-06T11:26:23.880Z,950.13
2018-07-06T11:27:23.882Z,950.12
2018-07-06T11:28:23.876Z,950.10
2018-07-06T11:29:23.880Z,950.09
2018-07-06T11:30:23.882Z,950.10
2018-07-06T11:31:23.886Z,950.10
2018-07-06T11:32:23.883Z,950.16
2018-07-06T11:33:23.893Z,950.12
2018-07-06T11:34:23.895Z,950.12
2018-07-06T11:35:23.915Z,950.08
2018-07-06T11:36:23.907Z,950.07
2018-07-06T11:37:23.902Z,950.13
2018-07-06T11:38:23.898Z,950.10
2018-07-06T11:39:23.928Z,950.15
2018-07-06T11:40:23.909Z,950.19
2018-07-06T11:41:23.912Z,950.17
2018-07-06T11:42:23.916Z,950.18
2018-07-06T11:43:23.910Z,950.16
2018-07-06T11:44:23.926Z,950.20
2018-07-06T11:45:23.924Z,950.20
2018-07-06T11:46:23.925Z,950.16
2018-07-06T11:47:23.926Z,950.16
2018-07-06T11:48:23.932Z,950.19
2018-07-06T11:49:23.937Z,950.17
2018-07-06T11:50:24.001Z,950.19
2018-07-06T11:51:23.947Z,950.15
2018-07-06T11:52:23.970Z,950.15
2018-07-06T11:53:23.950Z,950.17
2018-07-06T11:54:23.942Z,950.18
2018-07-06T11:55:23.943Z,950.20
2018-07-06T11:56:23.938Z,950.19
2018-07-06T11:57:23.936Z,950.19
2018-07-06T11:58:23.940Z,950.15
2018-07-06T11:59:23.947Z,950.20
2018-07-06T12:00:23.945Z,950.21
2018-07-06T12:01:23.941Z,950.19
2018-07-06T12:02:23.939Z,950.20
2018-07-06T12:03:23.941Z,950.18
2018-07-06T12:04:24.011Z,950.20
2018-07-06T12:05:23.943Z,950.20
2018-07-06T12:06:23.944Z,950.18
2018-07-06T12:07:23.948Z,950.17
2018-07-06T12:08:23.956Z,950.19
2018-07-06T12:09:23.946Z,950.23
2018-07-06T12:10:23.959Z,950.21
2018-07-06T12:11:23.944Z,950.24
2018-07-06T12:12:23.950Z,950.22
2018-07-06T12:13:23.949Z,950.18
2018-07-06T12:14:23.953Z,950.19
2018-07-06T12:15:23.953Z,950.26
2018-07-06T12:16:23.952Z,950.21
2018-07-06T12:17:23.957Z,950.21
2018-07-06T12:18:23.946Z,950.22
2018-07-06T12:19:23.966Z,950.19
2018-07-06T12:20:23.959Z,950.18
2018-07-06T12:21:23.994Z,950.12
2018-07-06T12:22:23.968Z,950.16
2018-07-06T12:23:24.012Z,950.15
2018-07-06T12:24:23.977Z,950.13
2018-07-06T12:25:23.989Z,950.19
2018-07-06T12:26:23.993Z,950.15
2018-07-06T12:27:23.999Z,950.12
2018-07-06T12:28:24.007Z,950.11
2018-07-06T12:29:24.023Z,950.08
2018-07-06T12:30:24.021Z,950.15
2018-07-06T12:31:24.028Z,950.19
2018-07-06T12:32:24.038Z,950.21
2018-07-06T12:33:24.049Z,950.26
2018-07-06T12:34:24.056Z,950.15
2018-07-06T12:35:24.063Z,950.15
2018-07-06T12:36:24.075Z,950.13
2018-07-06T12:37:24.084Z,950.10
2018-07-06T12:38:24.090Z,950.11
2018-07-06T12:39:24.095Z,950.10
2018-07-06T12:40:24.096Z,950.15
2018-07-06T12:41:24.113Z,950.16
2018-07-06T12:42:24.121Z,950.22
2018-07-06T12:43:24.130Z,950.18
2018-07-06T12:44:24.135Z,950.18
2018-07-06T12:45:24.145Z,950.17
2018-07-06T12:46:24.149Z,950.16
2018-07-06T12:47:24.158Z,950.19
2018-07-06T12:48:24.162Z,950.18
2018-07-06T12:49:24.172Z,950.21
2018-07-06T12:50:24.182Z,950.21
2018-07-06T12:51:24.186Z,950.24
2018-07-06T12:52:24.191Z,950.25
2018-07-06T12:53:24.200Z,950.26
2018-07-06T12:54:24.206Z,950.30
2018-07-06T12:55:24.214Z,950.28
2018-07-06T12:56:24.224Z,950.25
2018-07-06T12:57:24.227Z,950.26
2018-07-06T12:58:24.299Z,950.21
2018-07-06T12:59:24.240Z,950.27
2018-07-06T13:00:24.246Z,950.24
2018-07-06T13:01:24.250Z,950.24
2018-07-06T13:02:24.255Z,950.22
2018-07-06T13:03:24.264Z,950.22
2018-07-06T13:04:24.283Z,950.19
2018-07-06T13:05:24.281Z,950.23
2018-07-06T13:06:24.288Z,950.24
2018-07-06T13:07:24.290Z,950.22
2018-07-06T13:08:24.298Z,950.23
2018-07-06T13:09:24.303Z,950.21
2018-07-06T13:10:24.370Z,950.21
2018-07-06T13:11:24.312Z,950.20
2018-07-06T13:12:24.318Z,950.24
2018-07-06T13:13:24.325Z,950.26
2018-07-06T13:14:24.329Z,950.27